Meteo Giornale » Osservazioni meteo Italia » Pisa-S Giusto

ore: 05:45 - Osservazioni Meteo Pisa-S Giusto
Lat. 43° 41' N Lon. 10° 23' E Alt. 2 metri s.l.m.

molto_nuvoloso Europe/Rome

23 °C

Molto Nuvoloso

Temp. 24 Ore

23 °C

32 °C

Sud-Est

9.3 Km/h

Dew point 22 °C

Umidità 94 %

Visibilità  10 Km

Il sole sorge alle ore 06:02

Il sole tramonta alle ore 20:47

Data e Ora Cielo e Fenomeni T °C DP °C Um. % Pres. hPa Vis. km Vento km/h
Oggi h: 05:45 molto_nuvoloso Molto Nuvoloso 23 22 94 1014 10 SE 9.3
Oggi h: 05:15 molto_nuvoloso Molto Nuvoloso 23 22 94 1014 10 E/SE 7.4
Oggi h: 04:45 molto_nuvoloso Molto Nuvoloso 23 22 94 1014 10 E 9.3
Oggi h: 04:15 nuvoloso Nuvoloso 23 22 94 1014 10 E/SE 9.3
Oggi h: 03:45 nuvoloso Nuvoloso 23 22 94 1015 10 E 7.4
Oggi h: 03:15 nuvoloso Nuvoloso 23 23 100 1015 10 E 9.3
Oggi h: 02:45 sereno Sereno 24 23 94 1015 10 N 5.5
Oggi h: 02:15 sereno Sereno 24 23 94 1015 10 E/NE 7.4
Oggi h: 01:45 sereno Sereno 24 23 94 1015 10 E/NE 9.3
Oggi h: 01:15 sereno Sereno 24 23 94 1015 10 N 1.8
Oggi h: 00:45 sereno Sereno 24 23 94 1015 10 N 1.8
Oggi h: 00:15 sereno Sereno 24 23 94 1015 10 N 3.7
Ieri h: 23:45 sereno Sereno 24 23 94 1015 10 N 1.8
Ieri h: 23:15 sereno Sereno 25 24 94 1015 10 S/SO 7.4
Ieri h: 22:45 sereno Sereno 25 23 88 1015 10 S/SO 11.1
Ieri h: 22:15 sereno Sereno 25 23 88 1015 10 S/SO 9.3
Ieri h: 21:45 sereno Sereno 25 23 88 1015 10 SO 7.4
Ieri h: 21:15 sereno Sereno 26 23 83 1015 10 SO 7.4
Ieri h: 20:45 sereno Sereno 26 22 78 1014 10 S/SO 11.1
Ieri h: 20:15 sereno Sereno 27 22 74 1014 10 S/SO 11.1
Ieri h: 19:45 sereno Sereno 29 20 58 1014 10 S/SO 13
Ieri h: 19:15 sereno Sereno 29 21 62 1014 10 SO 11.1
Ieri h: 18:45 sereno Sereno 29 21 62 1014 10 O/SO 16.7
Ieri h: 18:15 sereno Sereno 30 21 58 1014 10 SO 16.7
Ieri h: 17:45 sereno Sereno 31 21 55 1014 10 S/SO 14.8
Ieri h: 17:15 sereno Sereno 30 22 62 1014 10 S/SO 14.8
Ieri h: 16:45 poco_nuvoloso Poco Nuvoloso 30 21 58 1015 10 S/SO 14.8
Ieri h: 16:15 poco_nuvoloso Poco Nuvoloso 31 20 52 1015 10 O/SO 25.9
Ieri h: 15:45 poco_nuvoloso Poco Nuvoloso 31 19 48 1015 10 S/SO 22.2
Ieri h: 15:15 poco_nuvoloso Poco Nuvoloso 32 19 46 1015 10 S/SO 24
Ieri h: 14:45 poco_nuvoloso Poco Nuvoloso 32 19 46 1015 10 S/SO 29.6
Ieri h: 14:15 poco_nuvoloso Poco Nuvoloso 32 19 46 1015 10 S 20.3
Ieri h: 13:45 poco_nuvoloso Poco Nuvoloso 31 21 55 1015 10 S 22.2
Ieri h: 13:15 poco_nuvoloso Poco Nuvoloso 30 18 48 1015 10 S/SO 24
Ieri h: 12:45 poco_nuvoloso Poco Nuvoloso 30 18 48 1015 10 S 11.1
Ieri h: 12:15 poco_nuvoloso Poco Nuvoloso 29 18 51 1015 10 E/SE 13
Ieri h: 11:45 poco_nuvoloso Poco Nuvoloso 29 18 51 1015 10 E/SE 16.7
Ieri h: 11:15 nuvoloso Nuvoloso 29 18 51 1014 10 E/SE 16.7
Ieri h: 10:45 nuvoloso Nuvoloso 28 18 54 1014 10 E 16.7
Ieri h: 10:15 poco_nuvoloso Poco Nuvoloso 27 19 61 1015 10 E 22.2
Ieri h: 09:45 poco_nuvoloso Poco Nuvoloso 26 19 65 1015 10 E 16.7
Ieri h: 09:15 poco_nuvoloso Poco Nuvoloso 25 20 73 1015 10 E/SE 14.8
Ieri h: 08:45 poco_nuvoloso Poco Nuvoloso 25 20 73 1015 10 E/SE 16.7
Ieri h: 08:15 poco_nuvoloso Poco Nuvoloso 24 22 88 1015 10 E/SE 24
Ieri h: 07:45 poco_nuvoloso Poco Nuvoloso 24 22 88 1015 10 E 7.4
Ieri h: 07:15 nuvoloso Nuvoloso 23 21 88 1015 10 E/NE 7.4